createdAt,value
2022-10-09T00:01:46.443Z,3.50
2022-10-09T00:04:15.214Z,3.50
2022-10-09T00:06:45.399Z,3.57
2022-10-09T00:09:14.519Z,3.47
2022-10-09T00:11:42.876Z,4.70
2022-10-09T00:14:11.656Z,3.23
2022-10-09T00:16:40.141Z,3.30
2022-10-09T00:19:08.914Z,2.90
2022-10-09T00:21:37.796Z,3.83
2022-10-09T00:24:07.969Z,3.13
2022-10-09T00:26:36.672Z,3.70
2022-10-09T00:29:05.992Z,3.47
2022-10-09T00:31:34.629Z,3.60
2022-10-09T00:34:03.384Z,3.67
2022-10-09T00:36:32.147Z,4.13
2022-10-09T00:39:00.882Z,3.70
2022-10-09T00:41:34.290Z,3.67
2022-10-09T00:44:04.021Z,3.10
2022-10-09T00:46:46.443Z,3.73
2022-10-09T00:49:19.037Z,3.60
2022-10-09T00:51:49.413Z,3.07
2022-10-09T00:54:20.337Z,3.47
2022-10-09T00:56:50.884Z,3.00
2022-10-09T00:59:19.963Z,3.30
2022-10-09T01:01:49.275Z,3.03
2022-10-09T01:04:18.411Z,3.27
2022-10-09T01:06:57.944Z,3.23
2022-10-09T01:09:34.049Z,3.30
2022-10-09T01:12:08.953Z,2.93
2022-10-09T01:14:40.982Z,2.90
2022-10-09T01:17:14.150Z,2.60
2022-10-09T01:20:04.495Z,3.23
2022-10-09T01:22:40.983Z,3.70
2022-10-09T01:25:10.640Z,3.50
2022-10-09T01:27:42.181Z,3.30
2022-10-09T01:30:13.369Z,2.57
2022-10-09T01:32:46.157Z,2.80
2022-10-09T01:35:16.308Z,3.00
2022-10-09T01:37:46.263Z,2.77
2022-10-09T01:40:17.264Z,2.97
2022-10-09T01:42:48.385Z,3.33
2022-10-09T01:45:17.541Z,2.63
2022-10-09T01:47:46.706Z,3.63
2022-10-09T01:50:19.714Z,2.70
2022-10-09T01:52:51.739Z,2.90
2022-10-09T01:55:34.714Z,3.13
2022-10-09T01:58:08.693Z,3.63
2022-10-09T02:00:39.354Z,3.40
2022-10-09T02:03:10.624Z,2.83
2022-10-09T02:05:41.024Z,4.23
2022-10-09T02:08:10.496Z,3.00
2022-10-09T02:10:39.068Z,3.17
2022-10-09T02:13:09.426Z,2.87
2022-10-09T02:15:42.879Z,3.20
2022-10-09T02:18:14.647Z,3.20
2022-10-09T02:20:47.326Z,3.00
2022-10-09T02:23:19.102Z,2.83
2022-10-09T02:25:47.807Z,3.07
2022-10-09T02:28:17.654Z,2.80
2022-10-09T02:30:49.212Z,2.87
2022-10-09T02:33:18.022Z,3.30
2022-10-09T02:35:47.657Z,3.10
2022-10-09T02:38:16.051Z,3.10
2022-10-09T02:40:47.409Z,2.83
2022-10-09T02:43:17.898Z,3.27
2022-10-09T02:45:46.446Z,3.00
2022-10-09T02:48:14.858Z,2.33
2022-10-09T02:50:43.694Z,2.57
2022-10-09T02:53:12.363Z,3.00
2022-10-09T02:55:40.614Z,2.20
2022-10-09T02:58:12.165Z,3.10
2022-10-09T03:00:42.071Z,2.27
2022-10-09T03:03:10.620Z,2.40
2022-10-09T03:05:39.066Z,2.53
2022-10-09T03:08:08.007Z,2.80
2022-10-09T03:10:38.757Z,2.87
2022-10-09T03:13:07.479Z,2.53
2022-10-09T03:15:36.311Z,2.50
2022-10-09T03:18:07.095Z,2.40
2022-10-09T03:20:35.508Z,2.63
2022-10-09T03:23:03.968Z,2.50
2022-10-09T03:25:32.700Z,2.10
2022-10-09T03:28:01.278Z,2.37
2022-10-09T03:30:30.375Z,2.37
2022-10-09T03:32:59.137Z,2.03
2022-10-09T03:35:29.299Z,2.33
2022-10-09T03:37:57.810Z,2.80
2022-10-09T03:40:26.432Z,2.10
2022-10-09T03:42:54.791Z,2.73
2022-10-09T03:45:23.771Z,2.10
2022-10-09T03:47:52.746Z,2.20
2022-10-09T03:50:21.193Z,2.00
2022-10-09T03:52:51.367Z,1.93
2022-10-09T03:55:20.209Z,3.20
2022-10-09T03:57:48.904Z,2.10
2022-10-09T04:00:17.858Z,2.23
2022-10-09T04:02:46.566Z,2.03
2022-10-09T04:05:16.099Z,2.37
2022-10-09T04:07:44.829Z,2.30
2022-10-09T04:10:15.201Z,2.60
2022-10-09T04:12:43.946Z,2.73
2022-10-09T04:15:12.908Z,2.83
2022-10-09T04:17:41.706Z,2.13
2022-10-09T04:20:11.129Z,2.43
2022-10-09T04:22:39.820Z,2.73
2022-10-09T04:25:09.467Z,2.50
2022-10-09T04:27:39.605Z,2.47
2022-10-09T04:30:09.773Z,2.17
2022-10-09T04:32:38.466Z,2.17
2022-10-09T04:35:08.250Z,2.50
2022-10-09T04:37:36.928Z,2.33
2022-10-09T04:40:06.281Z,2.40
2022-10-09T04:42:35.209Z,2.30
2022-10-09T04:45:05.597Z,2.70
2022-10-09T04:47:35.248Z,2.37
2022-10-09T04:50:04.685Z,2.23
2022-10-09T04:52:33.079Z,2.30
2022-10-09T04:55:01.953Z,2.07
2022-10-09T04:57:30.571Z,2.60
2022-10-09T04:59:59.552Z,3.40
2022-10-09T05:02:30.274Z,3.60
2022-10-09T05:04:59.310Z,4.73
2022-10-09T05:07:28.341Z,3.40
2022-10-09T05:09:57.587Z,4.00
2022-10-09T05:12:29.070Z,3.30
2022-10-09T05:14:58.760Z,3.77
2022-10-09T05:17:34.809Z,4.47
2022-10-09T05:20:04.208Z,3.80
2022-10-09T05:22:32.973Z,2.80
2022-10-09T05:25:01.715Z,3.77
2022-10-09T05:27:30.204Z,3.47
2022-10-09T05:29:59.031Z,2.73
2022-10-09T05:32:27.436Z,3.30
2022-10-09T05:34:57.585Z,2.70
2022-10-09T05:37:26.423Z,2.73
2022-10-09T05:39:55.142Z,2.60
2022-10-09T05:42:23.894Z,3.10
2022-10-09T05:44:52.365Z,2.53
2022-10-09T05:47:20.521Z,2.63
2022-10-09T05:49:48.956Z,2.97
2022-10-09T05:52:19.617Z,3.37
2022-10-09T05:54:48.256Z,3.00
2022-10-09T05:57:16.417Z,3.00
2022-10-09T05:59:45.014Z,3.20
2022-10-09T06:02:14.739Z,2.40
2022-10-09T06:04:44.326Z,3.30
2022-10-09T06:07:12.858Z,4.87
2022-10-09T06:09:42.736Z,5.10
2022-10-09T06:12:11.643Z,6.00
2022-10-09T06:14:40.148Z,6.93
2022-10-09T06:17:08.272Z,5.63
2022-10-09T06:19:36.874Z,3.80
2022-10-09T06:22:05.705Z,2.63
2022-10-09T06:24:34.212Z,3.50
2022-10-09T06:27:06.036Z,3.40
2022-10-09T06:29:34.795Z,2.73
2022-10-09T06:32:03.832Z,3.60
2022-10-09T06:34:32.662Z,4.17
2022-10-09T06:37:00.983Z,2.87
2022-10-09T06:39:29.999Z,3.23
2022-10-09T06:41:58.668Z,3.13
2022-10-09T06:44:28.556Z,3.10
2022-10-09T06:46:56.970Z,3.23
2022-10-09T06:49:26.001Z,3.03
2022-10-09T06:51:55.000Z,3.13
2022-10-09T06:54:23.540Z,2.87
2022-10-09T06:56:52.502Z,3.47
2022-10-09T06:59:20.841Z,2.03
2022-10-09T07:01:51.158Z,3.67
2022-10-09T07:04:20.305Z,3.00
2022-10-09T07:06:50.749Z,2.10
2022-10-09T07:09:20.457Z,2.60
2022-10-09T07:11:50.494Z,3.47
2022-10-09T07:14:20.223Z,3.33
2022-10-09T07:16:51.014Z,4.37
2022-10-09T07:19:19.884Z,2.40
2022-10-09T07:21:51.069Z,2.43
2022-10-09T07:24:21.589Z,3.20
2022-10-09T07:26:51.191Z,3.13
2022-10-09T07:29:21.238Z,2.50
2022-10-09T07:31:53.316Z,3.23
2022-10-09T07:34:22.029Z,8.93
2022-10-09T07:36:50.712Z,4.43
2022-10-09T07:39:20.302Z,2.13
2022-10-09T07:41:51.724Z,2.67
2022-10-09T07:44:20.351Z,2.40
2022-10-09T07:46:53.070Z,2.20
2022-10-09T07:49:22.306Z,2.60
2022-10-09T07:51:50.944Z,3.00
2022-10-09T07:54:19.452Z,2.47
2022-10-09T07:56:48.348Z,2.27
2022-10-09T07:59:17.959Z,2.47
2022-10-09T08:01:48.998Z,2.30
2022-10-09T08:04:19.447Z,2.00
2022-10-09T08:06:50.117Z,2.40
2022-10-09T08:09:21.559Z,1.70
2022-10-09T08:11:50.446Z,1.97
2022-10-09T08:14:19.573Z,1.90
2022-10-09T08:16:49.168Z,1.90
2022-10-09T08:19:19.171Z,2.00
2022-10-09T08:21:48.259Z,1.93
2022-10-09T08:24:16.790Z,1.80
2022-10-09T08:26:45.696Z,1.57
2022-10-09T08:29:16.686Z,2.17
2022-10-09T08:31:45.705Z,1.77
2022-10-09T08:34:14.372Z,1.50
2022-10-09T08:36:45.168Z,1.50
2022-10-09T08:39:14.008Z,1.57
2022-10-09T08:41:48.406Z,1.77
2022-10-09T08:44:19.996Z,1.40
2022-10-09T08:47:00.942Z,1.03
2022-10-09T08:49:34.525Z,1.40
2022-10-09T08:52:16.744Z,1.57
2022-10-09T08:54:45.073Z,1.17
2022-10-09T08:57:15.878Z,1.50
2022-10-09T08:59:44.668Z,2.20
2022-10-09T09:02:28.962Z,1.90
2022-10-09T09:05:05.451Z,1.50
2022-10-09T09:07:41.731Z,1.30
2022-10-09T09:10:15.108Z,1.90
2022-10-09T09:12:50.103Z,1.50
2022-10-09T09:15:37.009Z,1.50
2022-10-09T09:18:21.398Z,1.80
2022-10-09T09:20:54.674Z,1.37
2022-10-09T09:27:31.824Z,1.57
2022-10-09T09:30:04.298Z,1.40
2022-10-09T09:32:33.715Z,1.60
2022-10-09T09:35:10.795Z,1.60
2022-10-09T09:37:39.863Z,1.67
2022-10-09T09:40:36.706Z,1.40
2022-10-09T09:43:08.509Z,1.60
2022-10-09T09:45:36.788Z,1.57
2022-10-09T09:48:08.504Z,1.87
2022-10-09T09:50:53.103Z,1.17
2022-10-09T09:53:33.875Z,1.87
2022-10-09T09:56:02.360Z,1.57
2022-10-09T09:58:35.624Z,1.33
2022-10-09T10:01:06.600Z,1.30
2022-10-09T10:03:36.058Z,0.90
2022-10-09T10:06:04.754Z,1.20
2022-10-09T10:08:34.837Z,1.30
2022-10-09T10:11:07.216Z,1.50
2022-10-09T10:13:39.926Z,1.37
2022-10-09T10:16:10.227Z,1.27
2022-10-09T10:18:41.199Z,1.03
2022-10-09T10:21:13.674Z,1.40
2022-10-09T10:23:45.831Z,1.03
2022-10-09T10:26:23.256Z,1.40
2022-10-09T10:28:56.541Z,1.37
2022-10-09T10:31:36.636Z,1.57
2022-10-09T10:34:06.490Z,2.70
2022-10-09T10:36:35.628Z,1.93
2022-10-09T10:39:09.804Z,2.10
2022-10-09T10:41:42.946Z,1.40
2022-10-09T10:44:20.866Z,1.80
2022-10-09T10:46:54.723Z,1.60
2022-10-09T10:49:33.819Z,1.30
2022-10-09T10:52:18.193Z,1.10
2022-10-09T10:54:57.870Z,1.50
2022-10-09T10:57:32.390Z,1.10
2022-10-09T11:00:06.558Z,1.70
2022-10-09T11:02:59.676Z,1.40
2022-10-09T11:05:47.065Z,1.77
2022-10-09T11:08:30.405Z,1.40
2022-10-09T11:11:06.454Z,1.50
2022-10-09T11:13:36.250Z,3.10
2022-10-09T11:16:21.803Z,2.30
2022-10-09T11:19:04.234Z,1.90
2022-10-09T11:21:42.943Z,1.90
2022-10-09T11:24:24.128Z,1.50
2022-10-09T11:27:03.138Z,1.80
2022-10-09T11:29:36.350Z,1.93
2022-10-09T11:32:13.896Z,1.63
2022-10-09T11:34:46.353Z,1.57
2022-10-09T11:37:18.499Z,1.50
2022-10-09T11:39:47.344Z,1.60
2022-10-09T11:42:20.010Z,1.87
2022-10-09T11:45:03.247Z,1.50
2022-10-09T11:47:39.697Z,1.60
2022-10-09T11:50:24.803Z,1.50
2022-10-09T11:52:59.069Z,1.63
2022-10-09T11:55:29.226Z,1.37
2022-10-09T11:58:09.422Z,1.37
2022-10-09T12:00:38.625Z,1.87
2022-10-09T12:03:09.413Z,1.70
2022-10-09T12:05:42.980Z,1.57
2022-10-09T12:08:18.309Z,1.30
2022-10-09T12:10:52.620Z,1.50
2022-10-09T12:13:42.312Z,2.67
2022-10-09T12:16:12.715Z,1.90
2022-10-09T12:18:46.712Z,1.50
2022-10-09T12:21:23.640Z,1.30
2022-10-09T12:23:52.812Z,1.70
2022-10-09T12:26:23.116Z,1.20
2022-10-09T12:28:53.458Z,1.30
2022-10-09T12:31:25.845Z,1.13
2022-10-09T12:33:58.491Z,1.10
2022-10-09T12:36:28.565Z,1.30
2022-10-09T12:38:57.151Z,1.67
2022-10-09T12:41:27.750Z,1.23
2022-10-09T12:43:57.363Z,1.80
2022-10-09T12:46:32.050Z,1.20
2022-10-09T12:49:09.879Z,1.10
2022-10-09T12:51:38.351Z,1.30
2022-10-09T12:54:09.876Z,1.13
2022-10-09T12:56:39.807Z,1.30
2022-10-09T12:59:09.193Z,1.20
2022-10-09T13:01:37.728Z,1.47
2022-10-09T13:04:09.743Z,1.27
2022-10-09T13:06:44.208Z,2.40
2022-10-09T13:09:24.781Z,2.10
2022-10-09T13:11:55.926Z,1.50
2022-10-09T13:14:34.606Z,1.20
2022-10-09T13:17:03.820Z,1.10
2022-10-09T13:19:37.451Z,1.27
2022-10-09T13:22:21.242Z,1.30
2022-10-09T13:24:53.129Z,2.13
2022-10-09T13:27:21.612Z,1.67
2022-10-09T13:29:50.121Z,1.50
2022-10-09T13:32:19.178Z,0.97
2022-10-09T13:34:48.943Z,1.00
2022-10-09T13:37:20.321Z,1.40
2022-10-09T13:39:48.994Z,1.30
2022-10-09T13:42:17.966Z,1.30
2022-10-09T13:44:46.562Z,1.10
2022-10-09T13:47:15.359Z,1.10
2022-10-09T13:49:44.241Z,1.53
2022-10-09T13:52:13.935Z,2.10
2022-10-09T13:54:42.512Z,2.30
2022-10-09T13:57:10.963Z,1.80
2022-10-09T13:59:39.637Z,1.37
2022-10-09T14:02:08.204Z,1.10
2022-10-09T14:04:37.141Z,1.17
2022-10-09T14:07:05.820Z,1.90
2022-10-09T14:09:35.601Z,1.90
2022-10-09T14:12:03.924Z,1.10
2022-10-09T14:14:32.164Z,1.40
2022-10-09T14:17:00.767Z,1.30
2022-10-09T14:19:28.951Z,1.00
2022-10-09T14:21:57.480Z,1.30
2022-10-09T14:24:26.653Z,1.20
2022-10-09T14:26:56.708Z,1.40
2022-10-09T14:29:25.414Z,1.27
2022-10-09T14:31:53.948Z,1.10
2022-10-09T14:34:22.164Z,1.40
2022-10-09T14:36:50.780Z,1.20
2022-10-09T14:39:19.378Z,1.40
2022-10-09T14:41:48.520Z,1.57
2022-10-09T14:44:18.426Z,4.90
2022-10-09T14:46:47.052Z,5.17
2022-10-09T14:49:16.239Z,5.10
2022-10-09T14:51:44.664Z,8.93
2022-10-09T14:54:14.907Z,3.83
2022-10-09T14:56:43.397Z,2.53
2022-10-09T14:59:11.927Z,1.30
2022-10-09T15:01:42.558Z,1.60
2022-10-09T15:04:11.536Z,1.70
2022-10-09T15:06:41.330Z,1.80
2022-10-09T15:09:09.820Z,1.23
2022-10-09T15:11:38.399Z,1.53
2022-10-09T15:14:07.894Z,1.50
2022-10-09T15:16:36.466Z,1.40
2022-10-09T15:19:07.085Z,1.50
2022-10-09T15:21:37.059Z,1.53
2022-10-09T15:24:06.666Z,1.10
2022-10-09T15:26:37.111Z,1.87
2022-10-09T15:29:08.251Z,3.00
2022-10-09T15:31:39.788Z,2.20
2022-10-09T15:34:11.200Z,2.20
2022-10-09T15:36:43.286Z,2.10
2022-10-09T15:39:11.940Z,1.50
2022-10-09T15:41:42.754Z,1.70
2022-10-09T15:44:17.708Z,1.60
2022-10-09T15:47:50.413Z,2.10
2022-10-09T15:50:21.698Z,1.70
2022-10-09T15:52:50.671Z,1.70
2022-10-09T15:55:19.471Z,1.40
2022-10-09T15:57:47.903Z,1.67
2022-10-09T16:00:17.049Z,1.70
2022-10-09T16:02:46.730Z,2.53
2022-10-09T16:05:16.155Z,1.67
2022-10-09T16:07:46.444Z,1.87
2022-10-09T16:10:15.075Z,1.97
2022-10-09T16:12:45.726Z,1.90
2022-10-09T16:15:14.519Z,3.23
2022-10-09T16:17:43.112Z,2.17
2022-10-09T16:20:11.818Z,2.33
2022-10-09T16:22:40.609Z,2.50
2022-10-09T16:25:11.619Z,2.63
2022-10-09T16:27:40.288Z,2.10
2022-10-09T16:30:12.238Z,2.10
2022-10-09T16:32:40.855Z,2.13
2022-10-09T16:35:10.916Z,3.40
2022-10-09T16:37:40.074Z,4.20
2022-10-09T16:40:11.663Z,5.30
2022-10-09T16:42:40.497Z,3.40
2022-10-09T16:45:10.948Z,2.90
2022-10-09T16:47:43.009Z,2.40
2022-10-09T16:50:12.919Z,1.70
2022-10-09T16:52:42.562Z,2.73
2022-10-09T16:55:12.645Z,1.67
2022-10-09T16:57:41.315Z,2.30
2022-10-09T17:00:12.448Z,3.60
2022-10-09T17:02:41.057Z,3.20
2022-10-09T17:05:11.299Z,3.27
2022-10-09T17:07:41.450Z,2.63
2022-10-09T17:10:12.483Z,2.70
2022-10-09T17:12:48.477Z,3.17
2022-10-09T17:15:17.412Z,2.40
2022-10-09T17:17:46.834Z,1.90
2022-10-09T17:20:16.022Z,2.90
2022-10-09T17:22:45.049Z,2.53
2022-10-09T17:25:15.769Z,2.53
2022-10-09T17:27:45.008Z,2.00
2022-10-09T17:30:14.450Z,2.00
2022-10-09T17:32:43.544Z,1.40
2022-10-09T17:35:12.467Z,2.40
2022-10-09T17:37:42.757Z,2.13
2022-10-09T17:40:11.743Z,1.50
2022-10-09T17:42:41.874Z,1.53
2022-10-09T17:45:12.258Z,2.53
2022-10-09T17:47:43.757Z,2.90
2022-10-09T17:50:13.594Z,1.90
2022-10-09T17:52:43.119Z,1.80
2022-10-09T17:55:11.523Z,2.40
2022-10-09T17:57:42.691Z,2.47
2022-10-09T18:00:13.543Z,1.87
2022-10-09T18:02:43.552Z,2.17
2022-10-09T18:05:13.039Z,2.07
2022-10-09T18:07:42.179Z,2.80
2022-10-09T18:10:11.226Z,2.17
2022-10-09T18:12:39.933Z,2.60
2022-10-09T18:15:11.332Z,4.07
2022-10-09T18:17:42.948Z,9.10
2022-10-09T18:20:12.138Z,7.87
2022-10-09T18:22:46.442Z,3.93
2022-10-09T18:25:16.045Z,2.80
2022-10-09T18:27:45.766Z,3.23
2022-10-09T18:30:17.473Z,4.10
2022-10-09T18:32:46.668Z,4.20
2022-10-09T18:35:15.824Z,6.60
2022-10-09T18:37:46.221Z,8.80
2022-10-09T18:40:15.961Z,6.40
2022-10-09T18:42:45.298Z,6.87
2022-10-09T18:45:17.835Z,4.67
2022-10-09T18:47:47.660Z,3.10
2022-10-09T18:50:19.775Z,3.57
2022-10-09T18:52:54.101Z,6.40
2022-10-09T18:55:25.196Z,4.27
2022-10-09T18:57:56.207Z,4.97
2022-10-09T19:00:27.329Z,3.97
2022-10-09T19:02:56.477Z,2.90
2022-10-09T19:05:28.804Z,1.97
2022-10-09T19:07:58.356Z,2.10
2022-10-09T19:10:27.122Z,1.93
2022-10-09T19:12:59.017Z,2.27
2022-10-09T19:15:42.247Z,2.70
2022-10-09T19:18:21.110Z,2.30
2022-10-09T19:20:55.706Z,2.50
2022-10-09T19:23:33.142Z,1.87
2022-10-09T19:26:06.512Z,1.93
2022-10-09T19:28:51.634Z,2.40
2022-10-09T19:31:25.670Z,2.90
2022-10-09T19:33:56.733Z,1.93
2022-10-09T19:36:33.155Z,1.83
2022-10-09T19:39:10.668Z,3.00
2022-10-09T19:41:50.096Z,2.37
2022-10-09T19:44:24.924Z,2.60
2022-10-09T19:46:59.684Z,2.60
2022-10-09T19:49:32.869Z,2.10
2022-10-09T19:52:01.886Z,3.00
2022-10-09T19:54:30.460Z,2.97
2022-10-09T19:56:59.155Z,2.90
2022-10-09T19:59:29.099Z,2.03
2022-10-09T20:01:59.245Z,1.60
2022-10-09T20:04:28.438Z,1.90
2022-10-09T20:06:56.901Z,2.13
2022-10-09T20:09:25.616Z,1.90
2022-10-09T20:11:54.296Z,1.70
2022-10-09T20:14:22.957Z,2.67
2022-10-09T20:16:51.331Z,2.20
2022-10-09T20:19:21.279Z,2.13
2022-10-09T20:21:49.551Z,1.53
2022-10-09T20:24:18.571Z,2.10
2022-10-09T20:26:47.314Z,1.77
2022-10-09T20:29:16.473Z,1.70
2022-10-09T20:31:47.729Z,2.47
2022-10-09T20:34:17.253Z,2.00
2022-10-09T20:36:47.029Z,1.90
2022-10-09T20:39:16.331Z,2.50
2022-10-09T20:41:45.008Z,3.00
2022-10-09T20:44:13.696Z,2.80
2022-10-09T20:46:42.862Z,2.60
2022-10-09T20:49:13.561Z,1.67
2022-10-09T20:51:42.023Z,1.77
2022-10-09T20:54:18.032Z,1.67
2022-10-09T20:56:47.203Z,1.70
2022-10-09T20:59:16.205Z,1.37
2022-10-09T21:01:44.771Z,1.70
2022-10-09T21:04:14.778Z,1.40
2022-10-09T21:06:44.603Z,1.40
2022-10-09T21:09:15.206Z,2.00
2022-10-09T21:11:46.106Z,1.80
2022-10-09T21:14:16.005Z,2.00
2022-10-09T21:16:44.849Z,2.00
2022-10-09T21:19:14.227Z,1.67
2022-10-09T21:21:45.321Z,1.60
2022-10-09T21:24:17.718Z,1.20
2022-10-09T21:26:47.510Z,1.40
2022-10-09T21:29:16.288Z,1.63
2022-10-09T21:31:44.732Z,1.70
2022-10-09T21:34:13.230Z,1.67
2022-10-09T21:37:08.496Z,1.23
2022-10-09T21:39:33.355Z,1.77
2022-10-09T21:42:02.031Z,1.60
2022-10-09T21:44:30.538Z,1.30
2022-10-09T21:46:59.052Z,1.40
2022-10-09T21:49:28.959Z,1.80
2022-10-09T21:51:58.573Z,1.70
2022-10-09T21:54:27.414Z,1.47
2022-10-09T21:56:57.095Z,1.20
2022-10-09T21:59:25.504Z,1.70
2022-10-09T22:01:54.276Z,1.83
2022-10-09T22:04:23.338Z,1.90
2022-10-09T22:06:51.957Z,1.87
2022-10-09T22:09:20.561Z,1.93
2022-10-09T22:11:49.179Z,2.10
2022-10-09T22:14:18.937Z,1.70
2022-10-09T22:16:47.523Z,2.73
2022-10-09T22:19:16.180Z,1.90
2022-10-09T22:21:44.472Z,1.50
2022-10-09T22:24:13.094Z,1.37
2022-10-09T22:26:41.568Z,1.80
2022-10-09T22:29:10.377Z,1.43
2022-10-09T22:31:40.289Z,1.87
2022-10-09T22:34:08.641Z,1.90
2022-10-09T22:36:37.672Z,1.70
2022-10-09T22:39:07.780Z,2.10
2022-10-09T22:41:36.900Z,2.13
2022-10-09T22:44:06.869Z,1.70
2022-10-09T22:46:36.581Z,1.50
2022-10-09T22:49:06.795Z,2.03
2022-10-09T22:51:35.782Z,1.60
2022-10-09T22:54:04.370Z,2.00
2022-10-09T22:56:34.433Z,1.87
2022-10-09T22:59:03.037Z,1.20
2022-10-09T23:01:34.942Z,2.80
2022-10-09T23:04:07.455Z,1.90
2022-10-09T23:06:36.367Z,3.17
2022-10-09T23:09:06.364Z,2.23
2022-10-09T23:11:34.760Z,2.43
2022-10-09T23:14:03.898Z,2.10
2022-10-09T23:16:32.969Z,2.43
2022-10-09T23:19:06.404Z,1.83
2022-10-09T23:21:37.811Z,2.00
2022-10-09T23:24:06.752Z,2.37
2022-10-09T23:26:36.645Z,2.37
2022-10-09T23:29:07.350Z,2.33
2022-10-09T23:31:36.173Z,2.80
2022-10-09T23:34:05.054Z,2.17
2022-10-09T23:36:33.979Z,2.20
2022-10-09T23:39:06.637Z,1.93
2022-10-09T23:41:35.452Z,1.40
2022-10-09T23:44:04.042Z,1.50
2022-10-09T23:46:34.240Z,2.27
2022-10-09T23:49:02.782Z,2.20
2022-10-09T23:51:31.753Z,1.33
2022-10-09T23:54:00.310Z,1.80
2022-10-09T23:56:32.249Z,1.63
2022-10-09T23:59:01.949Z,1.97
